Time;durP1;ratioP1;P1;durP2;ratioP2;P2;SDS_P1;SDS_P2;PMS_P1;PMS_P2;Temp;Humidity;BMP_temperature;BMP_pressure;BME280_temperature;BME280_humidity;BME280_pressure;Samples;Min_cycle;Max_cycle;Signal;HPM_P1;HPM_P2
2022/01/02 00:01:03;;;;;;;4.20;1.70;;;14.30;99.90;;;;;;5031781;28;20219;-80
2022/01/02 00:03:34;;;;;;;2.90;1.90;;;14.30;99.90;;;;;;5024562;28;20313;-79
2022/01/02 00:06:03;;;;;;;3.07;1.87;;;14.40;99.90;;;;;;5020157;28;20224;-78
2022/01/02 00:08:32;;;;;;;5.03;1.93;;;14.40;99.90;;;;;;5029844;28;20271;-80
2022/01/02 00:11:00;;;;;;;3.27;1.93;;;14.50;99.90;;;;;;5034396;28;20217;-79
2022/01/02 00:13:32;;;;;;;4.43;2.10;;;14.50;99.90;;;;;;5037213;28;20301;-80
2022/01/02 00:16:04;;;;;;;2.97;2.17;;;14.50;99.90;;;;;;5035043;28;20255;-80
2022/01/02 00:18:34;;;;;;;3.97;1.70;;;14.50;99.90;;;;;;5030192;28;21002;-80
2022/01/02 00:21:06;;;;;;;3.03;1.70;;;14.50;99.90;;;;;;5053957;28;20261;-79
2022/01/02 00:23:41;;;;;;;3.37;1.93;;;14.50;99.90;;;;;;5035875;28;20239;-79
2022/01/02 00:26:16;;;;;;;3.43;1.97;;;14.50;99.90;;;;;;5030181;28;20235;-79
2022/01/02 00:28:46;;;;;;;4.03;2.20;;;14.50;99.90;;;;;;5035251;28;20221;-78
2022/01/02 00:31:14;;;;;;;3.20;2.10;;;14.50;99.90;;;;;;5049232;28;20226;-80
2022/01/02 00:33:41;;;;;;;4.53;2.40;;;14.50;99.90;;;;;;5052851;28;20342;-79
2022/01/02 00:36:09;;;;;;;4.33;2.40;;;14.50;99.90;;;;;;5049605;28;20398;-80
2022/01/02 00:38:38;;;;;;;4.10;2.53;;;14.50;99.90;;;;;;5043308;28;20215;-79
2022/01/02 00:41:05;;;;;;;4.13;1.93;;;14.50;99.90;;;;;;5036466;28;20251;-79
2022/01/02 00:43:46;;;;;;;4.37;2.37;;;14.50;99.90;;;;;;5032288;28;20246;-79
2022/01/02 00:46:14;;;;;;;5.43;2.17;;;14.50;99.90;;;;;;5023536;28;20646;-79
2022/01/02 00:48:45;;;;;;;6.17;2.30;;;14.40;99.90;;;;;;5034878;28;20233;-80
2022/01/02 00:51:21;;;;;;;4.37;2.20;;;14.40;99.90;;;;;;5046894;28;20294;-79
2022/01/02 00:53:48;;;;;;;4.27;2.17;;;14.40;99.90;;;;;;5035542;28;20917;-79
2022/01/02 00:56:19;;;;;;;4.27;2.77;;;14.40;99.90;;;;;;5035126;28;20219;-79
2022/01/02 00:58:51;;;;;;;5.07;2.47;;;14.40;99.90;;;;;;5031810;28;20240;-80
2022/01/02 01:01:29;;;;;;;5.43;2.57;;;14.40;99.90;;;;;;5030518;28;20219;-79
2022/01/02 01:03:56;;;;;;;6.43;2.50;;;14.40;99.90;;;;;;5032774;28;20686;-80
2022/01/02 01:06:26;;;;;;;5.83;2.57;;;14.40;99.90;;;;;;5043919;28;20310;-80
2022/01/02 01:08:56;;;;;;;4.87;2.70;;;14.40;99.90;;;;;;5031820;28;20314;-80
2022/01/02 01:11:25;;;;;;;4.13;2.50;;;14.40;99.90;;;;;;5036471;28;20211;-80
2022/01/02 01:13:54;;;;;;;4.70;2.60;;;14.30;99.90;;;;;;5026362;28;20221;-80
2022/01/02 01:16:21;;;;;;;7.00;2.70;;;14.30;99.90;;;;;;5031678;28;20605;-81
2022/01/02 01:18:48;;;;;;;3.87;2.27;;;14.30;99.90;;;;;;5031947;28;20262;-80
2022/01/02 01:21:15;;;;;;;5.37;2.57;;;14.20;99.90;;;;;;5031726;28;20309;-81
2022/01/02 01:23:42;;;;;;;3.40;2.67;;;14.20;99.90;;;;;;5037984;28;20217;-79
2022/01/02 01:26:10;;;;;;;5.40;2.83;;;14.20;99.90;;;;;;5048610;28;20222;-78
2022/01/02 01:28:37;;;;;;;3.90;2.47;;;14.20;99.90;;;;;;5031759;28;20232;-79
2022/01/02 01:31:05;;;;;;;5.63;2.80;;;14.20;99.90;;;;;;5049787;28;20338;-79
2022/01/02 01:33:33;;;;;;;5.67;2.57;;;14.20;99.90;;;;;;5031919;28;20223;-80
2022/01/02 01:35:59;;;;;;;5.37;2.70;;;14.20;99.90;;;;;;5032032;28;20231;-81
2022/01/02 01:38:26;;;;;;;4.30;2.93;;;14.10;99.90;;;;;;5038290;28;20230;-81
2022/01/02 01:40:58;;;;;;;4.30;2.77;;;14.10;99.90;;;;;;5036661;28;20244;-82
2022/01/02 01:43:36;;;;;;;4.50;2.40;;;14.10;99.90;;;;;;5030640;28;21031;-82
2022/01/02 01:46:05;;;;;;;6.17;3.07;;;14.10;99.90;;;;;;5028336;28;20543;-80
2022/01/02 01:48:32;;;;;;;7.27;2.70;;;14.10;99.90;;;;;;5031907;28;20987;-80
2022/01/02 01:50:59;;;;;;;5.27;2.83;;;14.00;99.90;;;;;;5036497;28;20715;-81
2022/01/02 01:53:26;;;;;;;5.13;2.70;;;14.00;99.90;;;;;;5038247;28;20748;-80
2022/01/02 01:55:55;;;;;;;5.63;3.50;;;14.00;99.90;;;;;;5033243;28;20242;-80
2022/01/02 01:58:22;;;;;;;4.40;2.93;;;13.90;99.90;;;;;;5049896;28;20217;-80
2022/01/02 02:00:49;;;;;;;3.93;2.60;;;13.90;99.90;;;;;;5031991;28;20280;-80
2022/01/02 02:03:29;;;;;;;5.40;2.73;;;13.90;99.90;;;;;;5034285;28;20680;-80
2022/01/02 02:05:57;;;;;;;5.57;2.83;;;13.90;99.90;;;;;;5035715;28;20241;-80
2022/01/02 02:08:26;;;;;;;4.63;2.73;;;13.90;99.90;;;;;;5031971;28;20225;-80
2022/01/02 02:10:56;;;;;;;4.10;2.63;;;13.80;99.90;;;;;;5032512;28;20222;-80
2022/01/02 02:13:24;;;;;;;5.93;3.53;;;13.80;99.90;;;;;;5031411;28;20592;-80
2022/01/02 02:15:53;;;;;;;9.60;3.13;;;13.80;99.90;;;;;;5034055;28;20233;-81
2022/01/02 02:18:20;;;;;;;9.13;3.53;;;13.80;99.90;;;;;;5031842;28;20656;-82
2022/01/02 02:20:49;;;;;;;10.77;3.23;;;13.80;99.90;;;;;;5033658;28;20218;-82
2022/01/02 02:23:23;;;;;;;8.33;3.73;;;13.80;99.90;;;;;;5032869;28;20249;-82
2022/01/02 02:25:50;;;;;;;7.63;3.53;;;13.80;99.90;;;;;;5037612;28;20907;-82
2022/01/02 02:28:18;;;;;;;6.37;3.30;;;13.80;99.90;;;;;;5032843;28;20213;-81
2022/01/02 02:30:49;;;;;;;5.10;3.80;;;13.70;99.90;;;;;;5031538;28;20635;-81
2022/01/02 02:33:17;;;;;;;6.90;4.07;;;13.70;99.90;;;;;;5033327;28;20253;-81
2022/01/02 02:35:46;;;;;;;5.60;4.33;;;13.70;99.90;;;;;;5035577;28;20226;-81
2022/01/02 02:38:18;;;;;;;6.93;3.83;;;13.70;99.90;;;;;;5034984;28;20313;-81
2022/01/02 02:40:47;;;;;;;4.90;3.83;;;13.60;99.90;;;;;;5034202;28;20209;-81
2022/01/02 02:43:25;;;;;;;6.33;3.97;;;13.60;99.90;;;;;;5031718;28;20674;-81
2022/01/02 02:51:29;;;;;;;6.40;4.33;;;13.60;99.90;;;;;;5034220;28;20581;-81
2022/01/02 02:53:57;;;;;;;8.23;4.50;;;13.60;99.90;;;;;;5034580;28;20210;-82
2022/01/02 02:56:26;;;;;;;7.23;4.37;;;13.50;99.90;;;;;;5051204;28;20230;-82
2022/01/02 02:58:56;;;;;;;9.30;3.97;;;13.60;99.90;;;;;;5043101;28;20696;-83
2022/01/02 03:01:25;;;;;;;7.93;4.87;;;13.50;99.90;;;;;;5035843;28;20220;-82
2022/01/02 03:03:53;;;;;;;7.63;4.60;;;13.50;99.90;;;;;;5031469;28;20225;-82
2022/01/02 03:06:21;;;;;;;9.20;5.03;;;13.50;99.90;;;;;;5033429;28;20223;-82
2022/01/02 03:08:49;;;;;;;7.13;4.10;;;13.50;99.90;;;;;;5031321;28;20303;-81
2022/01/02 03:11:20;;;;;;;6.33;4.77;;;13.50;99.90;;;;;;5031828;28;20243;-82
2022/01/02 03:13:49;;;;;;;9.93;4.70;;;13.50;99.90;;;;;;5036742;28;20233;-83
2022/01/02 03:16:17;;;;;;;9.47;4.57;;;13.50;99.90;;;;;;5048736;28;20231;-82
2022/01/02 03:18:44;;;;;;;9.53;4.73;;;13.50;99.90;;;;;;5033577;28;20325;-82
2022/01/02 03:21:12;;;;;;;8.97;4.60;;;13.50;99.90;;;;;;5051775;28;20209;-82
2022/01/02 03:23:40;;;;;;;9.53;4.93;;;13.50;99.90;;;;;;5037310;28;20712;-83
2022/01/02 03:26:08;;;;;;;7.13;4.80;;;13.50;99.90;;;;;;5034538;28;20229;-82
2022/01/02 03:28:37;;;;;;;9.00;5.73;;;13.50;99.90;;;;;;5037493;28;20326;-82
2022/01/02 03:31:04;;;;;;;7.37;4.90;;;13.50;99.90;;;;;;5035367;28;20286;-83
2022/01/02 03:33:33;;;;;;;9.33;4.87;;;13.50;99.90;;;;;;5049139;28;20214;-83
2022/01/02 03:36:01;;;;;;;9.47;4.93;;;13.50;99.90;;;;;;5032783;28;20217;-82
2022/01/02 03:38:28;;;;;;;9.27;5.37;;;13.50;99.90;;;;;;5031762;28;20310;-81
2022/01/02 03:40:55;;;;;;;9.23;5.00;;;13.50;99.90;;;;;;5035420;28;20253;-82
2022/01/02 03:43:22;;;;;;;10.37;5.40;;;13.40;99.90;;;;;;5030066;28;20212;-82
2022/01/02 03:45:50;;;;;;;9.37;5.17;;;13.40;99.90;;;;;;5050061;28;20215;-81
2022/01/02 03:48:17;;;;;;;10.23;5.43;;;13.40;99.90;;;;;;5031467;28;20216;-82
2022/01/02 03:50:45;;;;;;;8.00;4.83;;;13.40;99.90;;;;;;5030549;28;20234;-81
2022/01/02 03:53:11;;;;;;;9.50;5.37;;;13.50;99.90;;;;;;5030828;28;20224;-83
2022/01/02 03:55:39;;;;;;;12.23;5.10;;;13.40;99.90;;;;;;5029313;28;20301;-81
2022/01/02 03:58:07;;;;;;;8.47;5.33;;;13.40;99.90;;;;;;5031757;28;20206;-81
2022/01/02 04:00:34;;;;;;;9.90;5.37;;;13.40;99.90;;;;;;5031599;28;20308;-81
2022/01/02 04:03:02;;;;;;;7.60;5.47;;;13.40;99.90;;;;;;5041043;28;20224;-81
2022/01/02 04:05:29;;;;;;;8.77;5.57;;;13.40;99.90;;;;;;5032409;28;20243;-82
2022/01/02 04:07:56;;;;;;;9.80;5.63;;;13.40;99.90;;;;;;5058482;28;20218;-83
2022/01/02 04:10:23;;;;;;;10.30;5.83;;;13.40;99.90;;;;;;5050191;28;21056;-84
2022/01/02 04:12:50;;;;;;;8.23;5.70;;;13.50;99.90;;;;;;5045251;28;20223;-83
2022/01/02 04:15:17;;;;;;;8.63;5.47;;;13.50;99.90;;;;;;5028709;28;20220;-83
2022/01/02 04:17:45;;;;;;;8.33;5.80;;;13.40;99.90;;;;;;5051480;28;20707;-83
2022/01/02 04:20:16;;;;;;;10.73;6.20;;;13.50;99.90;;;;;;5041908;28;20218;-83
2022/01/02 04:22:44;;;;;;;8.67;5.97;;;13.40;99.90;;;;;;5035119;28;20775;-83
2022/01/02 04:25:12;;;;;;;8.60;6.30;;;13.40;99.90;;;;;;5039434;28;20228;-82
2022/01/02 04:27:39;;;;;;;8.17;5.90;;;13.50;99.90;;;;;;5039612;28;20719;-83
2022/01/02 04:30:09;;;;;;;10.50;6.57;;;13.50;99.90;;;;;;5031759;28;20210;-82
2022/01/02 04:32:36;;;;;;;8.50;6.10;;;13.40;99.90;;;;;;5044376;28;20238;-83
2022/01/02 04:35:03;;;;;;;8.90;6.43;;;13.40;99.90;;;;;;5050204;28;20235;-83
2022/01/02 04:37:32;;;;;;;13.23;7.00;;;13.50;99.90;;;;;;5032281;28;20233;-83
2022/01/02 04:39:59;;;;;;;12.37;6.27;;;13.50;99.90;;;;;;5051589;28;20216;-82
2022/01/02 04:42:25;;;;;;;11.03;6.70;;;13.50;99.90;;;;;;5032635;28;20573;-83
2022/01/02 04:44:52;;;;;;;11.93;6.50;;;13.50;99.90;;;;;;5047593;28;20666;-82
2022/01/02 04:47:19;;;;;;;11.60;6.30;;;13.50;99.90;;;;;;5033812;28;20221;-82
2022/01/02 04:49:46;;;;;;;10.20;6.07;;;13.50;99.90;;;;;;5032443;28;20607;-83
2022/01/02 04:52:13;;;;;;;10.07;6.43;;;13.50;99.90;;;;;;5040069;28;20217;-82
2022/01/02 04:54:42;;;;;;;11.33;6.67;;;13.50;99.90;;;;;;5031705;28;20221;-82
2022/01/02 04:57:09;;;;;;;9.90;6.73;;;13.50;99.90;;;;;;5032346;28;20217;-82
2022/01/02 04:59:37;;;;;;;12.17;6.73;;;13.50;99.90;;;;;;5030322;28;20311;-82
2022/01/02 05:02:04;;;;;;;11.43;7.13;;;13.40;99.90;;;;;;5050441;28;20222;-82
2022/01/02 05:04:31;;;;;;;10.13;7.43;;;13.40;99.90;;;;;;5053992;28;20650;-82
2022/01/02 05:06:59;;;;;;;10.33;7.20;;;13.40;99.90;;;;;;5028667;28;20309;-82
2022/01/02 05:09:26;;;;;;;10.80;6.97;;;13.40;99.90;;;;;;5032217;28;20980;-82
2022/01/02 05:11:54;;;;;;;12.13;7.30;;;13.40;99.90;;;;;;5034722;28;20229;-82
2022/01/02 05:14:21;;;;;;;7.80;6.80;;;13.40;99.90;;;;;;5028969;28;20222;-82
2022/01/02 05:16:47;;;;;;;10.77;7.70;;;13.40;99.90;;;;;;5055363;28;20276;-82
2022/01/02 05:19:15;;;;;;;11.43;7.67;;;13.40;99.90;;;;;;5035419;28;20230;-82
2022/01/02 05:21:42;;;;;;;10.53;7.47;;;13.40;99.90;;;;;;5035355;28;20291;-83
2022/01/02 05:24:08;;;;;;;11.03;7.50;;;13.40;99.90;;;;;;5035969;28;20212;-83
2022/01/02 05:26:35;;;;;;;10.27;7.83;;;13.40;99.90;;;;;;5034320;28;20650;-83
2022/01/02 05:29:05;;;;;;;16.07;7.50;;;13.40;99.90;;;;;;5039998;28;20973;-84
2022/01/02 05:31:31;;;;;;;10.47;7.23;;;13.40;99.90;;;;;;5053156;28;20220;-82
2022/01/02 05:33:59;;;;;;;11.07;7.60;;;13.40;99.90;;;;;;5039214;28;20212;-82
2022/01/02 05:36:27;;;;;;;12.80;8.07;;;13.40;99.90;;;;;;5035583;28;20213;-83
2022/01/02 05:38:55;;;;;;;12.43;8.13;;;13.40;99.90;;;;;;5036320;28;20283;-83
2022/01/02 05:41:22;;;;;;;10.07;7.53;;;13.40;99.90;;;;;;5035849;28;20228;-85
2022/01/02 05:43:49;;;;;;;11.43;7.83;;;13.40;99.90;;;;;;5051291;28;20709;-82
2022/01/02 05:46:18;;;;;;;11.83;7.60;;;13.40;99.90;;;;;;5035603;28;20260;-82
2022/01/02 05:48:45;;;;;;;12.77;8.40;;;13.40;99.90;;;;;;5035803;28;20221;-82
2022/01/02 05:51:12;;;;;;;11.97;7.77;;;13.40;99.90;;;;;;5031452;28;20216;-83
2022/01/02 05:53:40;;;;;;;13.73;8.47;;;13.40;99.90;;;;;;5040601;28;20222;-84
2022/01/02 05:56:07;;;;;;;10.83;8.17;;;13.50;99.90;;;;;;5038368;28;20641;-83
2022/01/02 05:58:35;;;;;;;16.83;8.97;;;13.50;99.90;;;;;;5036678;28;20981;-83
2022/01/02 06:01:02;;;;;;;12.23;8.47;;;13.40;99.90;;;;;;5052688;28;20304;-82
2022/01/02 06:03:30;;;;;;;14.80;9.07;;;13.40;99.90;;;;;;5033944;28;20663;-82
2022/01/02 06:05:57;;;;;;;11.27;8.07;;;13.40;99.90;;;;;;5034431;28;20219;-82
2022/01/02 06:08:23;;;;;;;12.97;8.30;;;13.40;99.90;;;;;;5051561;28;20281;-82
2022/01/02 06:10:51;;;;;;;12.13;8.80;;;13.40;99.90;;;;;;5036026;28;20883;-82
2022/01/02 06:13:18;;;;;;;12.17;7.90;;;13.40;99.90;;;;;;5037478;28;20298;-82
2022/01/02 06:15:45;;;;;;;10.23;7.83;;;13.50;99.90;;;;;;5035099;28;20236;-82
2022/01/02 06:18:12;;;;;;;13.77;8.23;;;13.50;99.90;;;;;;5034633;28;20248;-85
2022/01/02 06:20:40;;;;;;;12.57;7.83;;;13.50;99.90;;;;;;5035898;28;20218;-84
2022/01/02 06:23:07;;;;;;;9.50;6.97;;;13.50;99.90;;;;;;5035078;28;20228;-84
2022/01/02 06:25:34;;;;;;;11.90;7.73;;;13.50;99.90;;;;;;5038347;28;20629;-85
2022/01/02 06:28:01;;;;;;;11.33;7.37;;;13.60;99.90;;;;;;5035631;28;20597;-84
2022/01/02 06:30:29;;;;;;;10.97;7.93;;;13.50;99.90;;;;;;5034662;28;20263;-85
2022/01/02 06:32:56;;;;;;;12.13;7.93;;;13.60;99.90;;;;;;5035348;28;20214;-84
2022/01/02 06:35:25;;;;;;;14.90;7.20;;;13.60;99.90;;;;;;5035394;28;20279;-85
2022/01/02 06:37:54;;;;;;;17.00;7.97;;;13.60;99.90;;;;;;5035273;28;20460;-84
2022/01/02 06:40:22;;;;;;;13.47;6.97;;;13.60;99.90;;;;;;5033625;28;20279;-82
2022/01/02 06:42:49;;;;;;;12.53;7.53;;;13.60;99.90;;;;;;5032718;28;20645;-85
2022/01/02 06:45:17;;;;;;;11.53;7.40;;;13.60;99.90;;;;;;5033999;28;20230;-84
2022/01/02 06:47:44;;;;;;;13.20;7.57;;;13.70;99.90;;;;;;5033457;28;20602;-83
2022/01/02 06:50:12;;;;;;;11.07;7.33;;;13.60;99.90;;;;;;5032948;28;20230;-84
2022/01/02 06:52:39;;;;;;;11.70;7.30;;;13.70;99.90;;;;;;5050360;28;20227;-83
2022/01/02 06:55:09;;;;;;;15.93;8.20;;;13.70;99.90;;;;;;5051220;28;20303;-84
2022/01/02 06:57:36;;;;;;;13.33;7.63;;;13.70;99.90;;;;;;5032909;28;20288;-84
2022/01/02 07:00:05;;;;;;;13.63;7.83;;;13.70;99.90;;;;;;5033263;28;20225;-83
2022/01/02 07:02:32;;;;;;;12.30;7.93;;;13.70;99.90;;;;;;5032254;28;20240;-84
2022/01/02 07:04:59;;;;;;;12.97;7.20;;;13.70;99.90;;;;;;5036732;28;20636;-83
2022/01/02 07:07:26;;;;;;;12.77;7.77;;;13.70;99.90;;;;;;5031430;28;20716;-84
2022/01/02 07:09:52;;;;;;;13.17;7.70;;;13.80;99.90;;;;;;5037975;28;20229;-83
2022/01/02 07:12:20;;;;;;;10.13;7.17;;;13.80;99.90;;;;;;5031145;28;20321;-83
2022/01/02 07:14:47;;;;;;;10.53;6.93;;;13.80;99.90;;;;;;5049108;28;20221;-83
2022/01/02 07:17:14;;;;;;;9.63;6.83;;;13.80;99.90;;;;;;5038003;28;20691;-85
2022/01/02 07:19:40;;;;;;;12.23;7.50;;;13.80;99.90;;;;;;5047555;28;20234;-82
2022/01/02 07:22:07;;;;;;;11.67;6.93;;;13.80;99.90;;;;;;5052950;28;20244;-83
2022/01/02 07:24:34;;;;;;;9.03;6.57;;;13.80;99.90;;;;;;5048371;28;21768;-83
2022/01/02 07:27:01;;;;;;;13.43;7.57;;;13.90;99.90;;;;;;5035242;28;20222;-83
2022/01/02 07:29:29;;;;;;;9.03;6.73;;;13.90;99.90;;;;;;5034292;28;20285;-83
2022/01/02 07:31:56;;;;;;;9.17;6.67;;;13.90;99.90;;;;;;5030039;28;20220;-83
2022/01/02 07:34:23;;;;;;;12.80;7.00;;;13.90;99.90;;;;;;5028311;28;20210;-83
2022/01/02 07:36:50;;;;;;;10.13;7.00;;;13.90;99.90;;;;;;5035111;28;20707;-83
2022/01/02 07:39:17;;;;;;;11.87;7.93;;;13.90;99.90;;;;;;5043025;28;20317;-83
2022/01/02 07:41:44;;;;;;;11.30;7.00;;;13.90;99.90;;;;;;5038366;28;20283;-83
2022/01/02 07:44:10;;;;;;;10.87;7.33;;;14.00;99.90;;;;;;5053321;28;20234;-83
2022/01/02 07:46:38;;;;;;;11.57;7.20;;;14.00;99.90;;;;;;5033109;28;20226;-83
2022/01/02 07:49:05;;;;;;;8.53;7.13;;;14.00;99.90;;;;;;5051914;28;20713;-83
2022/01/02 07:51:32;;;;;;;11.77;6.90;;;14.00;99.90;;;;;;5047709;28;20227;-82
2022/01/02 07:54:00;;;;;;;9.30;6.10;;;14.00;99.90;;;;;;5032870;28;20570;-83
2022/01/02 07:56:26;;;;;;;12.40;6.50;;;14.00;99.90;;;;;;5040591;28;20315;-83
2022/01/02 07:58:55;;;;;;;11.63;7.20;;;14.00;99.90;;;;;;5048758;28;20225;-83
2022/01/02 08:01:22;;;;;;;11.27;7.37;;;14.10;99.90;;;;;;5059628;28;20225;-83
2022/01/02 08:03:51;;;;;;;11.63;6.30;;;14.10;99.90;;;;;;5049788;28;20315;-82
2022/01/02 08:06:17;;;;;;;15.70;6.90;;;14.10;99.90;;;;;;5036933;28;20229;-81
2022/01/02 08:08:45;;;;;;;11.67;6.90;;;14.10;99.90;;;;;;5035655;28;20218;-82
2022/01/02 08:11:12;;;;;;;12.83;6.50;;;14.10;99.90;;;;;;5050476;28;20638;-82
2022/01/02 08:13:38;;;;;;;11.07;6.60;;;14.20;99.90;;;;;;5054797;28;20833;-83
2022/01/02 08:16:05;;;;;;;20.70;6.23;;;14.10;99.90;;;;;;5030348;28;20219;-84
2022/01/02 08:18:32;;;;;;;31.67;7.87;;;14.20;99.90;;;;;;5045653;28;20240;-83
2022/01/02 08:21:00;;;;;;;24.13;7.13;;;14.20;99.90;;;;;;5025374;28;20233;-84
2022/01/02 08:23:26;;;;;;;11.50;6.13;;;14.20;99.90;;;;;;5031534;28;20222;-85
2022/01/02 08:25:53;;;;;;;18.33;7.47;;;14.30;99.90;;;;;;5029698;28;20234;-86
2022/01/02 08:28:20;;;;;;;16.17;6.80;;;14.30;99.90;;;;;;5031600;28;20211;-86
2022/01/02 08:30:47;;;;;;;16.53;6.57;;;14.30;99.90;;;;;;5028782;28;20222;-84
2022/01/02 08:33:14;;;;;;;16.63;5.80;;;14.30;99.90;;;;;;5029488;28;20694;-80
2022/01/02 08:35:41;;;;;;;18.00;6.07;;;14.30;99.90;;;;;;5032891;28;20221;-80
2022/01/02 08:38:10;;;;;;;10.50;5.93;;;14.30;99.90;;;;;;5047965;28;20303;-81
2022/01/02 08:40:36;;;;;;;11.20;5.53;;;14.40;99.90;;;;;;5029637;28;20226;-81
2022/01/02 08:43:03;;;;;;;8.30;4.90;;;14.40;99.90;;;;;;5048000;28;20239;-81
2022/01/02 08:45:30;;;;;;;9.63;5.00;;;14.40;99.90;;;;;;5047475;28;20227;-82
2022/01/02 08:47:57;;;;;;;11.07;5.10;;;14.40;99.90;;;;;;5036024;28;20229;-82
2022/01/02 08:50:23;;;;;;;10.97;5.00;;;14.40;99.90;;;;;;5048312;28;20703;-80
2022/01/02 08:52:50;;;;;;;8.83;4.47;;;14.40;99.90;;;;;;5049704;28;20227;-81
2022/01/02 08:55:18;;;;;;;12.03;4.50;;;14.50;99.90;;;;;;5054899;28;20222;-81
2022/01/02 08:57:45;;;;;;;11.50;4.37;;;14.50;99.90;;;;;;5034644;28;20222;-81
2022/01/02 09:00:13;;;;;;;7.47;3.90;;;14.50;99.90;;;;;;5053208;28;20667;-81
2022/01/02 09:02:40;;;;;;;8.17;4.10;;;14.50;99.90;;;;;;5034406;28;20239;-80
2022/01/02 09:05:08;;;;;;;10.57;4.20;;;14.50;99.90;;;;;;5052974;28;20306;-81
2022/01/02 09:07:35;;;;;;;10.33;4.23;;;14.60;99.90;;;;;;5052535;28;20238;-81
2022/01/02 09:10:02;;;;;;;7.30;4.00;;;14.60;99.90;;;;;;5053601;28;20235;-82
2022/01/02 09:12:30;;;;;;;7.73;4.43;;;14.60;99.90;;;;;;5052493;28;20777;-81
2022/01/02 09:14:57;;;;;;;11.53;4.10;;;14.60;99.90;;;;;;5035454;28;20222;-81
2022/01/02 09:17:23;;;;;;;6.37;3.40;;;14.60;99.90;;;;;;5053067;28;20230;-81
2022/01/02 09:19:52;;;;;;;9.20;3.97;;;14.60;99.90;;;;;;5052532;28;20230;-80
2022/01/02 09:22:18;;;;;;;6.60;4.03;;;14.60;99.90;;;;;;5035424;28;20312;-81
2022/01/02 09:24:45;;;;;;;10.87;3.93;;;14.60;99.90;;;;;;5052934;28;20236;-80
2022/01/02 09:27:12;;;;;;;8.53;3.80;;;14.70;99.90;;;;;;5035457;28;20230;-80
2022/01/02 09:29:40;;;;;;;6.73;3.97;;;14.70;99.90;;;;;;5035609;28;20219;-80
2022/01/02 09:32:07;;;;;;;6.40;3.23;;;14.70;99.90;;;;;;5035508;28;20247;-80
2022/01/02 09:34:33;;;;;;;8.27;3.80;;;14.70;99.90;;;;;;5053646;28;20230;-81
2022/01/02 09:37:01;;;;;;;12.63;3.87;;;14.70;99.90;;;;;;5052845;28;20398;-81
2022/01/02 09:39:27;;;;;;;8.33;3.70;;;14.70;99.90;;;;;;5053010;28;20700;-80
2022/01/02 09:41:54;;;;;;;11.20;3.80;;;14.70;99.90;;;;;;5053738;28;20310;-81
2022/01/02 09:44:21;;;;;;;9.40;3.70;;;14.70;99.90;;;;;;5053258;28;20228;-80
2022/01/02 09:46:52;;;;;;;9.37;4.20;;;14.70;99.90;;;;;;5053259;28;20702;-81
2022/01/02 09:49:20;;;;;;;6.07;3.90;;;14.70;99.90;;;;;;5052702;28;20228;-81
2022/01/02 09:51:46;;;;;;;7.83;4.13;;;14.70;99.90;;;;;;5052756;28;20311;-83
2022/01/02 09:54:13;;;;;;;9.17;4.20;;;14.70;99.90;;;;;;5053392;28;20215;-85
2022/01/02 09:56:40;;;;;;;7.87;3.50;;;14.70;99.90;;;;;;5041089;28;20217;-85
2022/01/02 09:59:07;;;;;;;8.73;4.20;;;14.70;99.90;;;;;;5035882;28;20309;-85
2022/01/02 10:01:34;;;;;;;6.67;3.60;;;14.70;99.90;;;;;;5032164;28;20287;-85
2022/01/02 10:04:02;;;;;;;8.30;3.53;;;14.70;99.90;;;;;;5050149;28;20688;-84
2022/01/02 10:06:40;;;;;;;7.70;4.10;;;14.70;99.90;;;;;;5050369;28;20240;-84
2022/01/02 10:09:11;;;;;;;5.70;3.80;;;14.70;99.90;;;;;;5032308;28;20222;-84
2022/01/02 10:11:40;;;;;;;10.90;4.10;;;14.70;99.90;;;;;;5033630;28;20222;-83
2022/01/02 10:14:09;;;;;;;5.33;3.10;;;14.80;99.90;;;;;;5049056;28;20320;-84
2022/01/02 10:16:38;;;;;;;10.50;3.80;;;14.70;99.90;;;;;;5038423;28;20897;-84
2022/01/02 10:19:20;;;;;;;7.73;3.43;;;14.70;99.90;;;;;;5030379;28;20650;-83
2022/01/02 10:21:54;;;;;;;8.30;4.33;;;14.70;99.90;;;;;;5033910;28;20234;-83
2022/01/02 10:24:26;;;;;;;8.43;3.47;;;14.70;99.90;;;;;;5037582;28;20305;-83
2022/01/02 10:27:11;;;;;;;9.60;3.80;;;14.70;99.90;;;;;;5034938;28;20224;-83
2022/01/02 10:29:47;;;;;;;7.63;3.57;;;14.70;99.90;;;;;;5031396;28;20325;-84
2022/01/02 10:32:31;;;;;;;6.80;3.43;;;14.80;99.90;;;;;;5031779;28;20223;-83
2022/01/02 10:35:11;;;;;;;7.37;3.30;;;14.80;99.90;;;;;;5029698;28;20318;-83
2022/01/02 10:37:38;;;;;;;10.87;3.67;;;14.80;99.90;;;;;;5049228;28;20262;-83
2022/01/02 10:40:06;;;;;;;7.80;3.60;;;14.80;99.90;;;;;;5039227;28;20219;-83
2022/01/02 10:42:42;;;;;;;5.87;3.03;;;14.80;99.90;;;;;;5037987;28;20857;-83
2022/01/02 10:45:09;;;;;;;9.40;3.87;;;14.70;99.90;;;;;;5040796;28;20208;-84
2022/01/02 10:47:36;;;;;;;9.77;3.47;;;14.70;99.90;;;;;;5059918;28;20293;-83
2022/01/02 10:50:06;;;;;;;9.07;3.60;;;14.80;99.90;;;;;;5035458;28;20226;-84
2022/01/02 10:52:36;;;;;;;7.97;3.33;;;14.80;99.90;;;;;;5050600;28;20229;-84
2022/01/02 10:55:06;;;;;;;8.83;3.33;;;14.80;99.90;;;;;;5035785;28;20229;-84
2022/01/02 10:57:33;;;;;;;10.47;3.90;;;14.80;99.90;;;;;;5049242;28;20243;-83
2022/01/02 11:00:00;;;;;;;8.87;3.57;;;14.80;99.90;;;;;;5043503;28;20223;-83
2022/01/02 11:02:29;;;;;;;7.80;3.80;;;14.90;99.90;;;;;;5034960;28;20230;-84
2022/01/02 11:04:58;;;;;;;9.47;3.37;;;14.80;99.90;;;;;;5049028;28;20215;-83
2022/01/02 11:07:27;;;;;;;6.33;3.30;;;14.90;99.90;;;;;;5032749;28;20230;-83
2022/01/02 11:09:56;;;;;;;9.87;3.70;;;14.90;99.90;;;;;;5054468;28;20314;-83
2022/01/02 11:12:24;;;;;;;5.60;3.27;;;14.90;99.90;;;;;;5040094;28;20216;-84
2022/01/02 11:14:51;;;;;;;8.00;3.07;;;14.90;99.90;;;;;;5033579;28;20309;-83
2022/01/02 11:17:18;;;;;;;7.33;3.77;;;14.90;99.90;;;;;;5030957;28;20214;-83
2022/01/02 11:19:45;;;;;;;7.90;3.90;;;14.90;99.90;;;;;;5031638;28;20238;-83
2022/01/02 11:22:14;;;;;;;7.70;3.70;;;14.90;99.90;;;;;;5056975;28;20779;-84
2022/01/02 11:24:49;;;;;;;6.53;3.57;;;14.90;99.90;;;;;;5050221;28;20756;-83
2022/01/02 11:27:24;;;;;;;9.07;4.37;;;14.90;99.90;;;;;;5048797;28;20218;-83
2022/01/02 11:29:51;;;;;;;11.07;3.90;;;14.90;99.90;;;;;;5050563;28;20211;-83
2022/01/02 11:32:22;;;;;;;9.13;3.70;;;14.90;99.90;;;;;;5038293;28;20220;-84
2022/01/02 11:34:49;;;;;;;7.50;3.67;;;14.90;99.90;;;;;;5031828;28;20231;-83
2022/01/02 11:37:24;;;;;;;6.33;3.40;;;14.90;99.90;;;;;;5051285;28;20221;-84
2022/01/02 11:39:57;;;;;;;9.10;3.73;;;14.90;99.90;;;;;;5035196;28;20623;-83
2022/01/02 11:42:44;;;;;;;9.60;3.87;;;14.90;99.90;;;;;;5034807;28;20213;-83
2022/01/02 11:45:41;;;;;;;8.80;4.53;;;14.90;99.90;;;;;;5032604;28;20660;-83
2022/01/02 11:48:29;;;;;;;7.43;3.77;;;14.90;99.90;;;;;;5026884;28;20331;-83
2022/01/02 11:50:56;;;;;;;10.07;4.43;;;14.90;99.90;;;;;;5053665;28;20221;-83
2022/01/02 11:53:25;;;;;;;9.70;4.60;;;14.90;99.90;;;;;;5030124;28;20338;-84
2022/01/02 11:55:54;;;;;;;9.27;3.63;;;14.80;99.90;;;;;;5029204;28;20302;-83
2022/01/02 11:58:53;;;;;;;7.67;3.80;;;14.80;99.90;;;;;;5035665;28;20658;-84
2022/01/02 12:01:46;;;;;;;7.77;3.73;;;14.80;99.90;;;;;;5056134;28;20588;-84
2022/01/02 12:04:13;;;;;;;12.63;3.90;;;14.80;99.90;;;;;;5035630;28;20220;-83
2022/01/02 12:06:42;;;;;;;7.77;4.23;;;14.80;99.90;;;;;;5029605;28;20325;-83
2022/01/02 12:09:34;;;;;;;11.40;4.07;;;14.80;99.90;;;;;;5036129;28;20234;-83
2022/01/02 12:12:04;;;;;;;7.60;3.77;;;14.80;99.90;;;;;;5028933;28;20861;-84
2022/01/02 12:14:43;;;;;;;9.43;4.00;;;14.80;99.90;;;;;;5044006;28;20237;-84
2022/01/02 12:17:12;;;;;;;8.80;4.17;;;14.90;99.90;;;;;;5031492;28;20223;-83
2022/01/02 12:20:07;;;;;;;8.77;4.27;;;14.80;99.90;;;;;;5046246;28;20625;-83
2022/01/02 12:22:51;;;;;;;7.67;3.87;;;14.90;99.90;;;;;;5003694;28;20646;-85
2022/01/02 12:25:21;;;;;;;9.23;3.97;;;14.90;99.90;;;;;;5048018;28;20226;-83
2022/01/02 12:27:55;;;;;;;8.40;3.97;;;14.90;99.90;;;;;;5032424;28;20296;-83
2022/01/02 12:30:24;;;;;;;10.20;4.50;;;14.90;99.90;;;;;;5030738;28;20226;-84
2022/01/02 12:32:51;;;;;;;10.10;4.47;;;14.90;99.90;;;;;;5038995;28;20227;-84
2022/01/02 12:35:18;;;;;;;12.30;4.57;;;14.90;99.90;;;;;;5027315;28;20229;-84
2022/01/02 12:37:45;;;;;;;9.10;3.90;;;14.90;99.90;;;;;;5045703;28;20228;-84
2022/01/02 12:40:17;;;;;;;9.23;4.30;;;14.90;99.90;;;;;;5047388;28;20219;-83
2022/01/02 12:42:46;;;;;;;6.60;4.30;;;14.90;99.90;;;;;;5028596;28;20231;-84
2022/01/02 12:45:16;;;;;;;7.53;4.33;;;15.00;99.90;;;;;;5031283;28;20373;-85
2022/01/02 12:47:54;;;;;;;11.57;4.13;;;15.00;99.90;;;;;;5032705;28;20237;-84
2022/01/02 12:50:26;;;;;;;9.03;4.23;;;15.00;99.90;;;;;;5027027;28;20928;-85
2022/01/02 12:52:53;;;;;;;8.27;4.13;;;15.00;99.90;;;;;;5047088;28;20242;-86
2022/01/02 12:55:20;;;;;;;8.13;4.47;;;15.00;99.90;;;;;;5028961;28;20274;-84
2022/01/02 12:57:47;;;;;;;7.03;4.53;;;15.10;99.90;;;;;;5029204;28;20229;-90